Time;durP1;ratioP1;P1;durP2;ratioP2;P2;SDS_P1;SDS_P2;PMS_P1;PMS_P2;Temp;Humidity;BMP_temperature;BMP_pressure;BME280_temperature;BME280_humidity;BME280_pressure;Samples;Min_cycle;Max_cycle;Signal;HPM_P1;HPM_P2
2021/06/04 00:01:39;;;;;;;13.32;9.65;;;;;;;21.44;47.82;95093.84;5035812;27;97118;-49
2021/06/04 00:04:06;;;;;;;14.77;11.02;;;;;;;21.45;47.89;95095.41;5035425;27;96695;-48
2021/06/04 00:06:31;;;;;;;19.10;15.77;;;;;;;21.45;47.79;95095.41;5034607;27;99383;-52
2021/06/04 00:08:56;;;;;;;19.63;17.50;;;;;;;21.46;47.78;95092.25;5035317;27;97836;-53
2021/06/04 00:11:31;;;;;;;19.13;15.65;;;;;;;21.47;47.71;95085.56;5035480;27;96543;-52
2021/06/04 00:13:58;;;;;;;17.00;14.80;;;;;;;21.46;47.73;95086.00;5035329;28;96686;-52
2021/06/04 00:16:36;;;;;;;13.10;11.40;;;;;;;21.46;47.85;95094.22;5034675;27;98086;-48
2021/06/04 00:19:05;;;;;;;10.88;9.20;;;;;;;21.46;47.89;95091.47;5034767;27;97794;-61
2021/06/04 00:21:34;;;;;;;11.30;8.90;;;;;;;21.44;46.75;95099.34;5035444;27;96660;-51
2021/06/04 00:24:00;;;;;;;8.93;6.97;;;;;;;21.24;46.62;95104.41;5035425;27;96788;-54
2021/06/04 00:26:26;;;;;;;12.23;6.55;;;;;;;21.18;46.64;95095.81;5031270;27;99325;-52
2021/06/04 00:28:51;;;;;;;9.02;5.97;;;;;;;21.16;46.73;95100.91;5034457;27;99453;-56
2021/06/04 00:31:17;;;;;;;8.30;6.53;;;;;;;21.22;46.68;95093.84;5035421;27;96748;-53
2021/06/04 00:33:43;;;;;;;6.45;5.85;;;;;;;21.24;46.83;95096.97;5033779;28;96920;-53
2021/06/04 00:36:09;;;;;;;8.20;5.82;;;;;;;21.26;47.17;95097.38;5033414;27;99780;-54
2021/06/04 00:38:34;;;;;;;8.07;4.82;;;;;;;21.26;47.32;95093.81;5034185;27;98862;-55
2021/06/04 00:41:05;;;;;;;6.47;4.28;;;;;;;21.28;47.24;95097.78;5034134;27;97707;-53
2021/06/04 00:43:31;;;;;;;6.57;4.13;;;;;;;21.31;47.12;95091.50;5034921;27;96771;-54
2021/06/04 00:45:56;;;;;;;5.10;3.80;;;;;;;21.38;47.03;95093.44;5034985;27;97992;-57
2021/06/04 00:48:22;;;;;;;5.97;4.07;;;;;;;21.38;47.23;95095.41;5033923;27;99467;-53
2021/06/04 00:50:51;;;;;;;8.35;4.75;;;;;;;21.37;47.13;95086.38;5035239;27;96582;-50
2021/06/04 00:53:17;;;;;;;6.38;4.60;;;;;;;21.43;47.82;95092.28;5035382;27;96501;-52
2021/06/04 00:55:43;;;;;;;4.55;3.63;;;;;;;21.48;47.10;95100.13;5034557;27;99790;-53
2021/06/04 00:58:08;;;;;;;4.25;3.35;;;;;;;21.45;47.09;95098.16;5035261;27;97206;-58
2021/06/04 01:00:43;;;;;;;5.78;3.50;;;;;;;21.53;46.73;95091.44;5033948;28;96744;-57
2021/06/04 01:03:11;;;;;;;3.47;3.17;;;;;;;21.57;47.04;95091.47;5034590;27;96802;-58
2021/06/04 01:05:37;;;;;;;4.82;3.90;;;;;;;21.39;46.05;95096.97;5033768;27;99631;-53
2021/06/04 01:08:11;;;;;;;5.10;4.45;;;;;;;21.26;45.44;95083.63;5033003;28;98954;-55
2021/06/04 01:11:11;;;;;;;17.42;7.55;;;;;;;21.20;45.62;95089.94;5033777;27;96754;-54
2021/06/04 01:13:49;;;;;;;9.27;5.63;;;;;;;21.11;45.10;95093.06;5034725;28;96886;-56
2021/06/04 01:16:21;;;;;;;10.80;5.68;;;;;;;21.04;45.62;95096.59;5032688;28;99897;-51
2021/06/04 01:19:21;;;;;;;5.85;5.35;;;;;;;21.02;45.56;95096.97;5016947;28;99221;-53
2021/06/04 01:21:53;;;;;;;5.78;5.15;;;;;;;20.97;45.29;95100.09;5034153;28;96729;-54
2021/06/04 01:24:37;;;;;;;6.70;4.68;;;;;;;21.00;46.04;95099.31;5017551;28;96713;-53
2021/06/04 01:27:05;;;;;;;6.03;5.13;;;;;;;20.94;45.95;95095.38;5034285;28;99305;-51
2021/06/04 01:29:36;;;;;;;6.95;5.55;;;;;;;20.89;45.78;95093.06;5032983;28;99391;-52
2021/06/04 01:32:05;;;;;;;6.95;6.20;;;;;;;20.92;45.69;95094.22;5010352;28;97035;-57
2021/06/04 01:34:35;;;;;;;9.27;6.25;;;;;;;20.91;46.84;95096.16;5007584;28;97015;-59
2021/06/04 01:37:06;;;;;;;6.05;5.45;;;;;;;20.87;45.63;95100.91;5021473;28;99994;-54
2021/06/04 01:39:41;;;;;;;6.90;5.57;;;;;;;20.89;45.17;95101.28;5007048;28;99246;-55
2021/06/04 01:42:07;;;;;;;7.95;4.63;;;;;;;20.81;45.59;95085.97;5013570;28;97010;-56
2021/06/04 01:44:37;;;;;;;6.60;5.30;;;;;;;20.86;46.11;95082.84;4996222;28;97056;-51
2021/06/04 01:47:05;;;;;;;9.88;7.38;;;;;;;20.92;46.15;95086.75;4999339;28;99139;-58
